»·PEaware :: MNL890 CYVR-KSAN

MNL890 :: CYVR-KSAN

FLIGHT INFORMATION

Flight Status: Arrived
Operator: Unknown
More flights by this operator :: More flights under this callsign
Pilot: Jack S. (366)
Aircraft: BOEING 727-200
(B722)
More flights by this aircraft type
Origin: CYVR Vancouver Intl
Canada
Destination: KSAN San Diego Intl-Lindbergh
United States
More flights between these airports :: More routes between these airports
Route: YVR J5 SEA PAWLI Q11 LAX HUBRD1
File this flight plan on PilotEdge
Remarks: G / RVSM mainland 890
Altitude:
(Current/Filed)
330ft
Speed:
(Current/Filed)
450kts
Departed: 27-Feb-12 04:33 PM
Arrived: 27-Feb-12 07:10 PM
Distance/Time
Traveled:
1023nm/2:37
Distance/Time
To Go:
Arrived

Flight Plot

Page will automatically refresh every two minutes.


Map Options




Map Legend


Flown Route
Filed Route
Departure Airport
Arrival Airport
Navaid (VOR, NDB)
Fix

Horizontal Profiles

Position Reports

Time Latitude Longitude Heading Altitude Ground
Speed
27-Feb-12 16:15 49.195620 -123.184572 105 26ft 0kts
27-Feb-12 16:16 49.195620 -123.184572 105 25ft 0kts
27-Feb-12 16:17 49.195620 -123.184572 105 25ft 0kts
27-Feb-12 16:18 49.195620 -123.184572 105 25ft 0kts
27-Feb-12 16:19 49.195620 -123.184572 105 25ft 0kts
27-Feb-12 16:20 49.195620 -123.184572 105 25ft 0kts
27-Feb-12 16:21 49.195620 -123.184572 105 25ft 0kts
27-Feb-12 16:24 49.194501 -123.185598 198 25ft 11kts
27-Feb-12 16:25 49.194020 -123.186706 259 25ft 2kts
27-Feb-12 16:26 49.193735 -123.188769 258 26ft 10kts
27-Feb-12 16:27 49.193209 -123.193498 259 25ft 14kts
27-Feb-12 16:28 49.192292 -123.200494 257 25ft 18kts
27-Feb-12 16:29 49.191512 -123.207809 212 26ft 10kts
27-Feb-12 16:30 49.191335 -123.207982 212 25ft 0kts
27-Feb-12 16:31 49.190589 -123.208410 186 25ft 10kts
27-Feb-12 16:32 49.187590 -123.186783 100 27ft 145kts
27-Feb-12 16:33 49.179812 -123.115360 99 1024ft 207kts
27-Feb-12 16:34 49.168746 -123.015692 108 3160ft 255kts
27-Feb-12 16:35 49.107673 -122.965009 162 5492ft 266kts
27-Feb-12 16:36 49.035197 -122.931791 164 7646ft 278kts
27-Feb-12 16:37 48.959340 -122.900327 164 9589ft 288kts
27-Feb-12 16:38 48.880598 -122.866588 164 10921ft 315kts
27-Feb-12 16:39 48.788641 -122.829305 165 11874ft 354kts
27-Feb-12 16:40 48.692418 -122.791207 166 13589ft 362kts
27-Feb-12 16:41 48.593650 -122.752415 166 15052ft 372kts
27-Feb-12 16:42 48.491516 -122.712488 166 16219ft 386kts
27-Feb-12 16:43 48.387269 -122.671978 166 17323ft 397kts
27-Feb-12 16:44 48.279039 -122.630110 165 18348ft 409kts
27-Feb-12 16:45 48.167836 -122.587060 166 19507ft 410kts
27-Feb-12 16:46 48.058113 -122.544860 167 20726ft 407kts
27-Feb-12 16:47 47.948715 -122.503142 167 21760ft 407kts
27-Feb-12 16:48 47.838577 -122.461253 166 22548ft 410kts
27-Feb-12 16:49 47.726768 -122.418883 165 23096ft 418kts
27-Feb-12 16:50 47.613851 -122.376128 166 23760ft 422kts
27-Feb-12 16:51 47.500780 -122.333643 166 24615ft 418kts
27-Feb-12 16:52 47.388312 -122.293096 167 25242ft 419kts
27-Feb-12 16:53 47.255785 -122.247462 166 25754ft 424kts
27-Feb-12 16:54 47.159678 -122.214147 166 26051ft 429kts
27-Feb-12 16:55 47.042649 -122.173656 166 26411ft 433kts
27-Feb-12 16:56 46.925311 -122.133339 166 26813ft 436kts
27-Feb-12 16:57 46.806957 -122.092825 166 27185ft 438kts
27-Feb-12 16:58 46.688135 -122.052331 166 27523ft 440kts
27-Feb-12 16:59 46.568653 -122.011793 166 27838ft 442kts
27-Feb-12 17:00 46.448438 -121.971303 165 27913ft 450kts
27-Feb-12 17:01 46.326315 -121.930165 165 28051ft 456kts
27-Feb-12 17:02 46.202305 -121.887883 165 28191ft 461kts
27-Feb-12 17:03 46.184721 -121.881579 165 28241ft 461kts
27-Feb-12 17:04 46.184721 -121.881579 165 28241ft 461kts
27-Feb-12 17:05 46.066896 -121.841233 166 28526ft 462kts
27-Feb-12 17:06 45.941794 -121.799652 165 28960ft 462kts
27-Feb-12 17:07 45.816554 -121.758291 165 29307ft 464kts
27-Feb-12 17:08 45.690583 -121.716931 165 29613ft 466kts
27-Feb-12 17:09 45.564518 -121.675740 165 29962ft 466kts
27-Feb-12 17:10 45.441180 -121.635471 166 30953ft 448kts
27-Feb-12 17:11 45.319698 -121.596268 166 31161ft 448kts
27-Feb-12 17:12 45.198107 -121.557047 166 31185ft 452kts
27-Feb-12 17:14 44.950414 -121.477716 167 31194ft 463kts
27-Feb-12 17:15 44.844733 -121.444053 167 31108ft 470kts
27-Feb-12 17:16 44.716226 -121.403274 168 31053ft 478kts
27-Feb-12 17:17 44.585422 -121.362049 168 31052ft 485kts
27-Feb-12 17:18 44.458031 -121.321987 168 32621ft 452kts
27-Feb-12 17:19 44.335414 -121.283788 168 32594ft 455kts
27-Feb-12 17:20 44.212169 -121.245431 167 32985ft 449kts
27-Feb-12 17:21 44.069473 -121.201120 167 33050ft 453kts
27-Feb-12 17:22 43.966534 -121.169320 167 33050ft 455kts
27-Feb-12 17:23 43.843101 -121.131383 167 33050ft 457kts
27-Feb-12 17:24 43.718586 -121.093278 167 33050ft 460kts
27-Feb-12 17:25 43.593171 -121.055053 167 33050ft 463kts
27-Feb-12 17:26 43.467219 -121.016821 167 33051ft 466kts
27-Feb-12 17:27 43.340677 -120.978568 167 33049ft 468kts
27-Feb-12 17:28 43.211683 -120.939704 167 33050ft 472kts
27-Feb-12 17:29 43.081979 -120.907403 170 32941ft 477kts
27-Feb-12 17:30 42.951229 -120.874290 169 32879ft 480kts
27-Feb-12 17:31 42.819943 -120.842080 170 32880ft 482kts
27-Feb-12 17:32 42.687456 -120.810098 169 32881ft 484kts
27-Feb-12 17:33 42.554600 -120.778060 170 32881ft 486kts
27-Feb-12 17:34 42.421758 -120.746313 170 32877ft 489kts
27-Feb-12 17:35 42.287443 -120.714375 170 32877ft 491kts
27-Feb-12 17:36 42.152728 -120.682394 170 32878ft 494kts
27-Feb-12 17:37 42.016969 -120.650374 170 32879ft 497kts
27-Feb-12 17:38 41.880629 -120.618484 168 32881ft 500kts
27-Feb-12 17:39 41.743365 -120.586015 169 32853ft 503kts
27-Feb-12 17:40 41.605319 -120.554081 168 32846ft 504kts
27-Feb-12 17:41 41.466937 -120.521794 169 32847ft 505kts
27-Feb-12 17:42 41.329976 -120.490257 169 32843ft 492kts
27-Feb-12 17:43 41.197318 -120.459828 168 32846ft 481kts
27-Feb-12 17:44 41.066327 -120.429752 168 32847ft 475kts
27-Feb-12 17:45 40.937813 -120.395599 165 32847ft 468kts
27-Feb-12 17:46 40.812030 -120.356457 165 32846ft 462kts
27-Feb-12 17:47 40.688034 -120.318156 165 32845ft 456kts
27-Feb-12 17:48 40.575831 -120.283748 164 32835ft 450kts
27-Feb-12 17:49 40.459465 -120.247739 166 32839ft 444kts
27-Feb-12 17:50 40.341648 -120.211954 166 32835ft 438kts
27-Feb-12 17:51 40.224012 -120.176171 166 32835ft 431kts
27-Feb-12 17:52 40.108104 -120.141000 166 32836ft 424kts
27-Feb-12 17:53 39.994090 -120.106504 166 32836ft 417kts
27-Feb-12 17:54 39.881366 -120.072575 166 32840ft 418kts
27-Feb-12 17:55 39.767695 -120.038434 167 32840ft 421kts
27-Feb-12 17:56 39.653343 -120.004225 166 32840ft 424kts
27-Feb-12 17:57 39.537982 -119.969865 166 32841ft 427kts
27-Feb-12 17:58 39.422295 -119.935437 166 32826ft 431kts
27-Feb-12 17:59 39.324470 -119.906447 166 32812ft 435kts
27-Feb-12 18:01 39.067031 -119.828629 167 32801ft 444kts
27-Feb-12 18:02 38.966600 -119.799169 167 32790ft 448kts
27-Feb-12 18:03 38.844665 -119.763848 167 32776ft 448kts
27-Feb-12 18:04 38.728609 -119.735616 162 32872ft 418kts
27-Feb-12 18:05 38.617697 -119.698105 166 32815ft 407kts
27-Feb-12 18:06 38.507670 -119.667946 174 32828ft 407kts
27-Feb-12 18:07 38.414834 -119.591551 144 32277ft 393kts
27-Feb-12 18:08 38.305612 -119.548342 179 30857ft 433kts
27-Feb-12 18:09 38.183065 -119.547349 179 30740ft 446kts
27-Feb-12 18:10 38.058531 -119.534412 172 30717ft 458kts
27-Feb-12 18:11 37.932342 -119.502269 169 30709ft 469kts
27-Feb-12 18:12 37.804249 -119.466553 169 30713ft 479kts
27-Feb-12 18:13 37.672922 -119.429812 169 30712ft 489kts
27-Feb-12 18:14 37.538762 -119.392499 167 30734ft 496kts
27-Feb-12 18:15 37.404527 -119.355077 167 30770ft 502kts
27-Feb-12 18:16 37.267702 -119.317007 169 30749ft 508kts
27-Feb-12 18:17 37.129431 -119.279181 167 30862ft 505kts
27-Feb-12 18:18 36.993994 -119.241812 166 30872ft 497kts
27-Feb-12 18:19 36.859994 -119.205018 166 30873ft 491kts
27-Feb-12 18:20 36.727614 -119.168866 166 30916ft 483kts
27-Feb-12 18:21 36.597117 -119.133313 166 30925ft 477kts
27-Feb-12 18:22 36.468145 -119.098392 166 30924ft 472kts
27-Feb-12 18:23 36.341661 -119.064190 166 30911ft 467kts
27-Feb-12 18:24 36.215394 -119.030180 166 30906ft 462kts
27-Feb-12 18:25 36.091262 -118.997067 166 30908ft 460kts
27-Feb-12 18:26 35.966176 -118.963790 166 30908ft 461kts
27-Feb-12 18:27 35.841182 -118.930418 166 30907ft 461kts
27-Feb-12 18:28 35.717187 -118.897398 166 30902ft 461kts
27-Feb-12 18:29 35.592011 -118.862653 166 30898ft 461kts
27-Feb-12 18:30 35.466637 -118.829238 166 30898ft 461kts
27-Feb-12 18:31 35.341787 -118.796279 167 30901ft 462kts
27-Feb-12 18:32 35.216238 -118.763220 167 30892ft 463kts
27-Feb-12 18:33 35.090079 -118.730016 169 30851ft 464kts
27-Feb-12 18:34 34.963606 -118.697132 169 30839ft 465kts
27-Feb-12 18:35 34.837434 -118.664243 169 30838ft 466kts
27-Feb-12 18:36 34.710429 -118.631248 170 30850ft 467kts
27-Feb-12 18:37 34.583565 -118.598442 170 30904ft 467kts
27-Feb-12 18:38 34.456619 -118.565737 169 30916ft 467kts
27-Feb-12 18:39 34.330402 -118.533166 169 30905ft 468kts
27-Feb-12 18:40 34.203334 -118.500618 169 30891ft 469kts
27-Feb-12 18:41 34.086962 -118.470768 170 30902ft 469kts
27-Feb-12 18:42 33.959874 -118.438208 167 30904ft 471kts
27-Feb-12 18:43 33.859701 -118.337053 136 30920ft 479kts
27-Feb-12 18:44 33.770360 -118.223670 134 28537ft 468kts
27-Feb-12 18:45 33.683672 -118.113143 132 26443ft 441kts
27-Feb-12 18:46 33.602373 -118.009648 132 23559ft 418kts
27-Feb-12 18:48 33.451358 -117.816692 134 19087ft 386kts
27-Feb-12 18:49 33.389900 -117.739356 134 15566ft 420kts
27-Feb-12 18:50 33.312496 -117.642026 133 14922ft 388kts
27-Feb-12 18:51 33.240405 -117.551602 133 14896ft 360kts
27-Feb-12 18:52 33.172887 -117.467176 134 14938ft 361kts
27-Feb-12 18:53 33.096793 -117.399136 156 14951ft 389kts
27-Feb-12 18:54 32.993410 -117.342395 156 14947ft 424kts
27-Feb-12 18:55 32.900787 -117.291074 157 14365ft 313kts
27-Feb-12 18:56 32.825289 -117.243656 128 12929ft 310kts
27-Feb-12 18:57 32.802260 -117.147467 102 11181ft 300kts
27-Feb-12 18:58 32.784283 -117.052134 102 9471ft 294kts
27-Feb-12 18:59 32.763345 -116.942749 101 7547ft 287kts
27-Feb-12 19:01 32.697620 -116.840826 211 4666ft 217kts
27-Feb-12 19:02 32.669816 -116.894346 267 3977ft 205kts
27-Feb-12 19:03 32.676556 -116.953136 284 3978ft 165kts
27-Feb-12 19:04 32.689721 -117.009372 287 2717ft 189kts
27-Feb-12 19:05 32.702330 -117.061186 287 2274ft 153kts
27-Feb-12 19:06 32.713822 -117.108405 286 1396ft 140kts
27-Feb-12 19:07 32.723897 -117.149765 286 506ft 126kts
27-Feb-12 19:08 32.733394 -117.188816 286 29ft 93kts
27-Feb-12 19:09 32.734880 -117.198946 252 29ft 0kts
27-Feb-12 19:10 32.734775 -117.199035 178 29ft 2kts
27-Feb-12 19:11 32.733972 -117.196838 198 29ft 0kts
27-Feb-12 19:12 32.733847 -117.196819 150 29ft 4kts
27-Feb-12 19:13 32.732944 -117.195164 232 28ft 3kts

Navigation Log

Ident Type
1. CYVR Airport
2. YVR Navaid
3. SEA Navaid
4. PAWLI Fix
5. PITVE Fix
6. PUSHH Fix
7. PASKE Fix
8. LAX Navaid
9. OTISS Fix
10. HUBRD Fix
11. CARDI Fix
12. TORIE Fix
13. KSAN Airport